createdAt,value
2018-11-04T00:00:49.206Z,246.80
2018-11-04T00:01:49.176Z,272.90
2018-11-04T00:02:49.123Z,243.30
2018-11-04T00:03:49.086Z,282.80
2018-11-04T00:04:49.043Z,288.60
2018-11-04T00:05:49.012Z,263.00
2018-11-04T00:06:48.960Z,256.50
2018-11-04T00:07:48.952Z,273.60
2018-11-04T00:08:48.874Z,257.80
2018-11-04T00:09:48.839Z,242.00
2018-11-04T00:10:48.818Z,227.30
2018-11-04T00:11:48.753Z,220.80
2018-11-04T00:12:48.716Z,233.50
2018-11-04T00:13:48.670Z,235.50
2018-11-04T00:14:48.673Z,237.10
2018-11-04T00:15:48.599Z,234.20
2018-11-04T00:16:48.563Z,239.60
2018-11-04T00:17:48.513Z,261.40
2018-11-04T00:18:48.470Z,244.30
2018-11-04T00:19:48.427Z,241.60
2018-11-04T00:20:48.388Z,235.40
2018-11-04T00:21:48.356Z,228.10
2018-11-04T00:22:48.307Z,227.10
2018-11-04T00:23:48.295Z,237.80
2018-11-04T00:24:48.225Z,226.70
2018-11-04T00:25:48.181Z,219.50
2018-11-04T00:26:48.191Z,233.10
2018-11-04T00:27:48.099Z,218.20
2018-11-04T00:28:48.059Z,224.50
2018-11-04T00:29:48.091Z,220.30
2018-11-04T00:30:47.981Z,212.40
2018-11-04T00:31:47.951Z,237.60
2018-11-04T00:32:47.893Z,231.90
2018-11-04T00:33:47.868Z,248.00
2018-11-04T00:34:47.815Z,240.90
2018-11-04T00:35:47.773Z,264.90
2018-11-04T00:36:47.747Z,273.80
2018-11-04T00:37:47.691Z,285.80
2018-11-04T00:38:47.654Z,287.60
2018-11-04T00:39:47.611Z,306.40
2018-11-04T00:40:47.568Z,310.50
2018-11-04T00:41:47.536Z,327.00
2018-11-04T00:42:47.500Z,317.90
2018-11-04T00:43:47.454Z,314.70
2018-11-04T00:44:47.405Z,315.20
2018-11-04T00:45:47.359Z,275.00
2018-11-04T00:46:47.326Z,266.50
2018-11-04T00:47:47.291Z,282.50
2018-11-04T00:48:47.243Z,256.00
2018-11-04T00:49:47.200Z,271.10
2018-11-04T00:50:47.159Z,252.90
2018-11-04T00:51:47.118Z,237.40
2018-11-04T00:52:47.096Z,227.10
2018-11-04T00:53:47.040Z,220.20
2018-11-04T00:54:47.003Z,218.40
2018-11-04T00:55:46.952Z,233.50
2018-11-04T00:56:46.919Z,238.80
2018-11-04T00:57:46.872Z,264.50
2018-11-04T00:58:46.836Z,243.60
2018-11-04T00:59:46.790Z,219.80
2018-11-04T01:00:46.745Z,229.80
2018-11-04T01:01:46.709Z,227.40
2018-11-04T01:02:46.667Z,246.90
2018-11-04T01:03:46.635Z,239.00
2018-11-04T01:04:46.586Z,237.50
2018-11-04T01:05:46.546Z,209.10
2018-11-04T01:06:46.503Z,217.90
2018-11-04T01:07:46.461Z,231.10
2018-11-04T01:08:46.472Z,203.60
2018-11-04T01:09:46.384Z,237.00
2018-11-04T01:10:46.346Z,260.90
2018-11-04T01:11:46.310Z,283.90
2018-11-04T01:12:46.268Z,288.50
2018-11-04T01:13:46.227Z,276.30
2018-11-04T01:14:46.179Z,271.40
2018-11-04T01:15:46.133Z,255.60
2018-11-04T01:16:46.093Z,257.30
2018-11-04T01:17:46.051Z,278.10
2018-11-04T01:18:46.032Z,296.30
2018-11-04T01:19:45.968Z,276.40
2018-11-04T01:20:45.929Z,296.50
2018-11-04T01:21:45.889Z,275.80
2018-11-04T01:22:45.850Z,286.90
2018-11-04T01:23:45.811Z,278.80
2018-11-04T01:24:45.772Z,288.70
2018-11-04T01:25:45.722Z,278.50
2018-11-04T01:26:45.681Z,272.50
2018-11-04T01:27:45.643Z,318.10
2018-11-04T01:28:45.596Z,313.10
2018-11-04T01:29:45.574Z,290.80
2018-11-04T01:30:45.520Z,273.30
2018-11-04T01:31:45.476Z,259.90
2018-11-04T01:32:45.439Z,250.80
2018-11-04T01:33:45.396Z,277.80
2018-11-04T01:34:45.368Z,260.80
2018-11-04T01:35:45.320Z,278.80
2018-11-04T01:36:45.269Z,289.60
2018-11-04T01:37:45.233Z,317.50
2018-11-04T01:38:45.191Z,330.30
2018-11-04T01:39:45.167Z,315.00
2018-11-04T01:40:45.111Z,300.20
2018-11-04T01:41:45.068Z,282.70
2018-11-04T01:42:45.027Z,285.30
2018-11-04T01:43:44.987Z,273.40
2018-11-04T01:44:44.945Z,267.10
2018-11-04T01:45:44.914Z,275.10
2018-11-04T01:46:44.864Z,262.70
2018-11-04T01:47:44.830Z,274.70
2018-11-04T01:48:44.780Z,263.20
2018-11-04T01:49:44.738Z,288.40
2018-11-04T01:50:44.706Z,263.90
2018-11-04T01:51:44.658Z,283.80
2018-11-04T01:52:44.625Z,284.30
2018-11-04T01:53:44.581Z,270.80
2018-11-04T01:54:44.532Z,257.50
2018-11-04T01:55:44.503Z,263.20
2018-11-04T01:56:44.453Z,293.90
2018-11-04T01:57:44.410Z,279.50
2018-11-04T01:58:44.370Z,308.30
2018-11-04T01:59:44.327Z,326.00
2018-11-04T02:00:44.305Z,354.90
2018-11-04T02:01:44.247Z,370.20
2018-11-04T02:02:44.205Z,366.50
2018-11-04T02:03:44.164Z,342.20
2018-11-04T02:04:44.123Z,321.30
2018-11-04T02:05:44.081Z,336.50
2018-11-04T02:06:44.049Z,346.60
2018-11-04T02:07:43.998Z,393.30
2018-11-04T02:08:43.956Z,415.20
2018-11-04T02:09:43.916Z,403.90
2018-11-04T02:10:43.876Z,382.80
2018-11-04T02:11:43.845Z,374.70
2018-11-04T02:12:43.796Z,367.10
2018-11-04T02:13:43.752Z,355.70
2018-11-04T02:14:43.711Z,358.20
2018-11-04T02:15:43.669Z,342.00
2018-11-04T02:16:43.635Z,353.30
2018-11-04T02:17:43.590Z,338.70
2018-11-04T02:18:43.546Z,349.60
2018-11-04T02:19:43.508Z,351.40
2018-11-04T02:20:43.462Z,349.80
2018-11-04T02:21:43.447Z,354.10
2018-11-04T02:22:43.392Z,343.30
2018-11-04T02:23:43.340Z,367.40
2018-11-04T02:24:43.305Z,343.10
2018-11-04T02:25:43.259Z,345.00
2018-11-04T02:26:43.218Z,331.60
2018-11-04T02:27:43.186Z,328.60
2018-11-04T02:28:43.137Z,309.80
2018-11-04T02:29:43.096Z,307.80
2018-11-04T02:30:43.053Z,307.50
2018-11-04T02:31:43.049Z,294.50
2018-11-04T02:32:42.984Z,304.80
2018-11-04T02:33:42.930Z,311.50
2018-11-04T02:34:42.891Z,295.40
2018-11-04T02:35:42.847Z,297.20
2018-11-04T02:36:42.811Z,326.80
2018-11-04T02:37:42.782Z,328.90
2018-11-04T02:38:42.724Z,327.50
2018-11-04T02:39:42.683Z,332.00
2018-11-04T02:40:42.643Z,344.80
2018-11-04T02:41:42.603Z,319.10
2018-11-04T02:42:42.575Z,308.60
2018-11-04T02:43:42.520Z,320.30
2018-11-04T02:44:42.488Z,292.30
2018-11-04T02:45:42.445Z,265.60
2018-11-04T02:46:42.399Z,291.30
2018-11-04T02:47:42.355Z,310.00
2018-11-04T02:48:42.324Z,321.50
2018-11-04T02:49:42.279Z,312.80
2018-11-04T02:50:42.228Z,320.80
2018-11-04T02:51:42.187Z,323.80
2018-11-04T02:52:42.148Z,284.90
2018-11-04T02:53:42.116Z,282.30
2018-11-04T02:54:42.067Z,281.70
2018-11-04T02:55:42.030Z,290.30
2018-11-04T02:56:41.983Z,295.80
2018-11-04T02:57:41.940Z,277.80
2018-11-04T02:58:41.912Z,279.50
2018-11-04T02:59:41.862Z,258.80
2018-11-04T03:00:41.921Z,284.50
2018-11-04T03:01:41.819Z,265.10
2018-11-04T03:02:41.740Z,260.80
2018-11-04T03:03:41.712Z,248.30
2018-11-04T03:04:41.657Z,284.10
2018-11-04T03:05:41.612Z,253.20
2018-11-04T03:06:41.573Z,244.00
2018-11-04T03:07:41.530Z,245.60
2018-11-04T03:08:41.492Z,240.60
2018-11-04T03:09:41.461Z,233.60
2018-11-04T03:10:41.408Z,224.90
2018-11-04T03:11:41.383Z,224.00
2018-11-04T03:12:41.331Z,239.30
2018-11-04T03:13:41.286Z,210.00
2018-11-04T03:14:41.254Z,242.10
2018-11-04T03:15:41.204Z,242.20
2018-11-04T03:16:41.163Z,244.50
2018-11-04T03:17:41.120Z,277.60
2018-11-04T03:18:41.099Z,276.40
2018-11-04T03:19:41.478Z,284.70
2018-11-04T03:20:40.991Z,285.40
2018-11-04T03:21:40.953Z,298.80
2018-11-04T03:22:40.913Z,312.30
2018-11-04T03:23:40.872Z,306.50
2018-11-04T03:24:40.865Z,275.60
2018-11-04T03:25:40.790Z,279.50
2018-11-04T03:26:40.749Z,260.30
2018-11-04T03:27:40.713Z,263.70
2018-11-04T03:28:40.668Z,272.80
2018-11-04T03:29:40.631Z,265.20
2018-11-04T03:30:40.592Z,266.20
2018-11-04T03:31:40.544Z,245.20
2018-11-04T03:32:40.504Z,259.10
2018-11-04T03:33:40.455Z,261.10
2018-11-04T03:34:40.432Z,266.20
2018-11-04T03:35:40.379Z,266.30
2018-11-04T03:36:40.334Z,268.50
2018-11-04T03:37:40.296Z,273.80
2018-11-04T03:38:40.253Z,301.10
2018-11-04T03:39:40.237Z,310.40
2018-11-04T03:40:40.170Z,314.50
2018-11-04T03:41:40.132Z,297.10
2018-11-04T03:42:40.093Z,246.40
2018-11-04T03:43:40.050Z,229.60
2018-11-04T03:44:40.014Z,237.60
2018-11-04T03:45:39.985Z,241.00
2018-11-04T03:46:39.936Z,282.70
2018-11-04T03:47:39.882Z,271.60
2018-11-04T03:48:39.836Z,287.70
2018-11-04T03:49:39.800Z,286.30
2018-11-04T03:50:39.775Z,279.80
2018-11-04T03:51:39.716Z,281.80
2018-11-04T03:52:39.677Z,268.30
2018-11-04T03:53:39.636Z,279.60
2018-11-04T03:54:39.594Z,260.80
2018-11-04T03:55:39.559Z,261.10
2018-11-04T03:56:39.515Z,250.70
2018-11-04T03:57:39.470Z,256.20
2018-11-04T03:58:39.434Z,265.80
2018-11-04T03:59:39.387Z,286.10
2018-11-04T04:00:39.365Z,269.00
2018-11-04T04:01:39.306Z,270.50
2018-11-04T04:02:39.264Z,260.10
2018-11-04T04:03:39.222Z,262.00
2018-11-04T04:04:39.180Z,252.10
2018-11-04T04:05:39.150Z,251.20
2018-11-04T04:06:39.110Z,254.10
2018-11-04T04:07:39.058Z,293.20
2018-11-04T04:08:39.016Z,268.10
2018-11-04T04:09:38.977Z,294.60
2018-11-04T04:10:38.942Z,266.90
2018-11-04T04:11:38.900Z,242.00
2018-11-04T04:12:38.848Z,253.60
2018-11-04T04:13:38.812Z,257.60
2018-11-04T04:14:38.766Z,254.80
2018-11-04T04:15:38.750Z,234.00
2018-11-04T04:16:38.685Z,241.30
2018-11-04T04:17:38.644Z,248.50
2018-11-04T04:18:38.608Z,241.40
2018-11-04T04:19:38.561Z,277.20
2018-11-04T04:20:38.523Z,346.90
2018-11-04T04:21:38.497Z,375.00
2018-11-04T04:22:38.440Z,315.50
2018-11-04T04:23:38.402Z,328.10
2018-11-04T04:24:38.364Z,318.90
2018-11-04T04:25:38.319Z,400.00
2018-11-04T04:26:38.286Z,404.40
2018-11-04T04:27:38.232Z,383.80
2018-11-04T04:28:38.194Z,391.70
2018-11-04T04:29:38.151Z,372.90
2018-11-04T04:30:38.108Z,391.70
2018-11-04T04:31:38.090Z,475.40
2018-11-04T04:32:38.026Z,371.70
2018-11-04T04:33:37.984Z,348.30
2018-11-04T04:34:37.944Z,352.60
2018-11-04T04:35:37.904Z,322.60
2018-11-04T04:36:37.861Z,324.90
2018-11-04T04:37:37.831Z,310.00
2018-11-04T04:38:37.786Z,296.50
2018-11-04T04:39:37.741Z,298.30
2018-11-04T04:40:37.697Z,292.30
2018-11-04T04:41:37.658Z,286.00
2018-11-04T04:42:37.619Z,291.10
2018-11-04T04:43:37.574Z,323.00
2018-11-04T04:44:37.535Z,352.60
2018-11-04T04:45:37.492Z,313.40
2018-11-04T04:46:37.450Z,289.60
2018-11-04T04:47:37.418Z,311.70
2018-11-04T04:48:37.370Z,299.40
2018-11-04T04:49:37.328Z,320.80
2018-11-04T04:50:37.285Z,319.00
2018-11-04T04:51:37.242Z,307.90
2018-11-04T04:52:37.212Z,321.20
2018-11-04T04:53:37.163Z,313.50
2018-11-04T04:54:37.118Z,323.80
2018-11-04T04:55:37.078Z,294.90
2018-11-04T04:56:37.043Z,317.00
2018-11-04T04:57:37.012Z,352.20
2018-11-04T04:58:36.955Z,320.50
2018-11-04T04:59:36.916Z,311.80
2018-11-04T05:00:36.974Z,347.20
2018-11-04T05:01:36.831Z,339.00
2018-11-04T05:02:36.814Z,354.60
2018-11-04T05:03:36.749Z,319.60
2018-11-04T05:04:36.710Z,314.50
2018-11-04T05:05:36.667Z,309.70
2018-11-04T05:06:36.635Z,309.10
2018-11-04T05:07:36.588Z,315.30
2018-11-04T05:08:36.552Z,307.90
2018-11-04T05:09:36.503Z,304.10
2018-11-04T05:10:36.460Z,302.60
2018-11-04T05:11:36.421Z,264.20
2018-11-04T05:12:36.374Z,279.40
2018-11-04T05:13:36.347Z,280.70
2018-11-04T05:14:36.297Z,298.20
2018-11-04T05:15:36.255Z,285.00
2018-11-04T05:16:36.212Z,268.40
2018-11-04T05:17:36.178Z,288.30
2018-11-04T05:18:36.148Z,309.70
2018-11-04T05:19:36.089Z,297.10
2018-11-04T05:20:36.054Z,308.80
2018-11-04T05:21:36.012Z,390.40
2018-11-04T05:22:35.966Z,421.50
2018-11-04T05:23:35.931Z,415.60
2018-11-04T05:24:35.901Z,378.70
2018-11-04T05:25:35.840Z,387.70
2018-11-04T05:26:35.806Z,381.10
2018-11-04T05:27:35.762Z,386.40
2018-11-04T05:28:35.719Z,356.80
2018-11-04T05:29:35.689Z,370.90
2018-11-04T05:30:35.637Z,356.70
2018-11-04T05:31:35.594Z,328.80
2018-11-04T05:32:35.555Z,352.40
2018-11-04T05:33:35.513Z,316.20
2018-11-04T05:34:35.482Z,309.50
2018-11-04T05:35:35.434Z,298.50
2018-11-04T05:36:35.388Z,292.30
2018-11-04T05:37:35.352Z,292.60
2018-11-04T05:38:35.313Z,306.40
2018-11-04T05:39:35.286Z,306.60
2018-11-04T05:40:35.226Z,326.40
2018-11-04T05:41:35.186Z,283.60
2018-11-04T05:42:35.150Z,308.60
2018-11-04T05:43:35.100Z,314.00
2018-11-04T05:44:35.064Z,322.80
2018-11-04T05:45:35.031Z,310.60
2018-11-04T05:46:34.979Z,307.90
2018-11-04T05:47:34.943Z,296.40
2018-11-04T05:48:34.899Z,305.80
2018-11-04T05:49:34.857Z,295.70
2018-11-04T05:50:34.827Z,289.40
2018-11-04T05:51:34.775Z,283.20
2018-11-04T05:52:34.738Z,295.70
2018-11-04T05:53:34.689Z,304.70
2018-11-04T05:54:34.652Z,303.80
2018-11-04T05:55:34.621Z,322.00
2018-11-04T05:56:34.568Z,301.60
2018-11-04T05:57:34.531Z,301.50
2018-11-04T05:58:34.488Z,266.60
2018-11-04T05:59:34.447Z,271.00
2018-11-04T06:00:34.419Z,285.10
2018-11-04T06:01:34.369Z,340.50
2018-11-04T06:02:34.325Z,343.40
2018-11-04T06:03:34.283Z,326.50
2018-11-04T06:04:34.242Z,323.40
2018-11-04T06:05:34.226Z,287.40
2018-11-04T06:06:34.162Z,330.30
2018-11-04T06:07:34.123Z,376.80
2018-11-04T06:08:34.080Z,391.00
2018-11-04T06:09:34.041Z,390.60
2018-11-04T06:10:33.998Z,373.50
2018-11-04T06:11:33.973Z,352.20
2018-11-04T06:12:33.915Z,343.80
2018-11-04T06:13:33.877Z,344.40
2018-11-04T06:14:33.838Z,343.60
2018-11-04T06:15:33.793Z,342.80
2018-11-04T06:16:33.763Z,344.80
2018-11-04T06:17:33.712Z,334.70
2018-11-04T06:18:33.678Z,331.00
2018-11-04T06:19:33.657Z,327.00
2018-11-04T06:20:33.590Z,338.70
2018-11-04T06:21:33.558Z,328.40
2018-11-04T06:22:33.509Z,368.20
2018-11-04T06:23:33.469Z,367.00
2018-11-04T06:24:33.425Z,352.80
2018-11-04T06:25:33.386Z,363.00
2018-11-04T06:26:33.352Z,378.90
2018-11-04T06:27:33.310Z,387.90
2018-11-04T06:28:33.262Z,381.20
2018-11-04T06:29:33.226Z,398.40
2018-11-04T06:30:33.185Z,386.00
2018-11-04T06:31:33.156Z,410.30
2018-11-04T06:32:33.097Z,424.70
2018-11-04T06:33:33.063Z,398.70
2018-11-04T06:34:33.079Z,386.30
2018-11-04T06:35:32.979Z,405.00
2018-11-04T06:36:32.958Z,440.70
2018-11-04T06:37:32.900Z,432.70
2018-11-04T06:38:32.869Z,442.60
2018-11-04T06:39:32.819Z,486.20
2018-11-04T06:40:32.778Z,471.80
2018-11-04T06:41:32.738Z,513.80
2018-11-04T06:42:32.711Z,510.80
2018-11-04T06:43:32.653Z,478.20
2018-11-04T06:44:32.616Z,465.60
2018-11-04T06:45:32.579Z,466.40
2018-11-04T06:46:32.535Z,460.00
2018-11-04T06:47:32.583Z,505.80
2018-11-04T06:48:32.456Z,496.40
2018-11-04T06:49:32.416Z,452.30
2018-11-04T06:50:32.374Z,459.00
2018-11-04T06:51:32.336Z,481.20
2018-11-04T06:52:32.301Z,456.20
2018-11-04T06:53:32.269Z,446.00
2018-11-04T06:54:32.213Z,470.30
2018-11-04T06:55:32.175Z,471.50
2018-11-04T06:56:32.136Z,468.20
2018-11-04T06:57:32.103Z,444.10
2018-11-04T06:58:32.059Z,455.40
2018-11-04T06:59:32.013Z,474.60
2018-11-04T07:00:31.973Z,484.90
2018-11-04T07:01:31.955Z,462.20
2018-11-04T07:02:31.910Z,494.90
2018-11-04T07:03:31.853Z,481.80
2018-11-04T07:04:31.816Z,468.90
2018-11-04T07:05:31.774Z,489.70
2018-11-04T07:06:31.734Z,491.00
2018-11-04T07:07:31.700Z,468.60
2018-11-04T07:08:31.683Z,477.90
2018-11-04T07:09:31.618Z,457.20
2018-11-04T07:10:31.583Z,464.60
2018-11-04T07:11:31.540Z,465.40
2018-11-04T07:12:31.496Z,486.60
2018-11-04T07:13:31.466Z,487.80
2018-11-04T07:14:31.414Z,492.80
2018-11-04T07:15:31.379Z,468.10
2018-11-04T07:16:31.337Z,474.90
2018-11-04T07:17:31.296Z,465.00
2018-11-04T07:18:31.267Z,463.10
2018-11-04T07:19:31.218Z,461.30
2018-11-04T07:20:31.179Z,458.50
2018-11-04T07:21:31.145Z,481.20
2018-11-04T07:22:31.101Z,480.40
2018-11-04T07:23:31.076Z,475.50
2018-11-04T07:24:31.026Z,472.50
2018-11-04T07:25:31.004Z,458.00
2018-11-04T07:26:30.943Z,461.70
2018-11-04T07:27:30.902Z,465.70
2018-11-04T07:28:30.863Z,466.00
2018-11-04T07:29:30.837Z,445.60
2018-11-04T07:30:30.790Z,428.10
2018-11-04T07:31:30.749Z,467.20
2018-11-04T07:32:30.706Z,459.80
2018-11-04T07:33:30.670Z,430.60
2018-11-04T07:34:30.639Z,422.80
2018-11-04T07:35:30.589Z,443.40
2018-11-04T07:36:30.549Z,416.30
2018-11-04T07:37:30.512Z,430.10
2018-11-04T07:38:30.470Z,446.10
2018-11-04T07:39:30.440Z,423.30
2018-11-04T07:40:30.394Z,438.70
2018-11-04T07:41:30.351Z,433.00
2018-11-04T07:42:30.321Z,414.40
2018-11-04T07:43:30.276Z,419.70
2018-11-04T07:44:30.247Z,423.40
2018-11-04T07:45:30.190Z,412.60
2018-11-04T07:46:30.158Z,420.50
2018-11-04T07:47:30.125Z,411.80
2018-11-04T07:48:30.080Z,414.60
2018-11-04T07:49:30.064Z,419.40
2018-11-04T07:50:30.047Z,388.30
2018-11-04T07:51:30.011Z,405.50
2018-11-04T07:52:29.920Z,408.00
2018-11-04T07:53:29.884Z,378.70
2018-11-04T07:54:29.906Z,381.80
2018-11-04T07:55:29.822Z,368.90
2018-11-04T07:56:29.766Z,361.90
2018-11-04T07:57:29.734Z,353.50
2018-11-04T07:58:29.691Z,362.40
2018-11-04T07:59:29.658Z,373.30
2018-11-04T08:00:29.624Z,359.90
2018-11-04T08:01:29.573Z,360.20
2018-11-04T08:02:29.535Z,355.20
2018-11-04T08:03:29.544Z,366.50
2018-11-04T08:04:29.464Z,351.60
2018-11-04T08:05:29.429Z,342.00
2018-11-04T08:06:29.381Z,342.40
2018-11-04T08:07:29.342Z,344.40
2018-11-04T08:08:29.301Z,353.90
2018-11-04T08:09:29.264Z,330.30
2018-11-04T08:10:29.245Z,330.80
2018-11-04T08:11:29.186Z,348.10
2018-11-04T08:12:29.146Z,323.50
2018-11-04T08:13:29.126Z,327.40
2018-11-04T08:14:29.072Z,306.20
2018-11-04T08:15:29.038Z,327.00
2018-11-04T08:16:29.005Z,311.90
2018-11-04T08:17:28.956Z,311.70
2018-11-04T08:18:28.925Z,290.70
2018-11-04T08:19:28.881Z,280.90
2018-11-04T08:20:28.840Z,253.50
2018-11-04T08:21:28.909Z,276.00
2018-11-04T08:22:28.769Z,399.20
2018-11-04T08:23:28.725Z,239.60
2018-11-04T08:24:28.687Z,185.20
2018-11-04T08:25:28.653Z,191.30
2018-11-04T08:26:28.626Z,159.00
2018-11-04T08:27:28.580Z,153.60
2018-11-04T08:28:28.535Z,149.70
2018-11-04T08:29:28.499Z,150.00
2018-11-04T08:30:28.460Z,142.20
2018-11-04T08:31:28.419Z,133.70
2018-11-04T08:32:28.393Z,146.90
2018-11-04T08:33:28.339Z,150.50
2018-11-04T08:34:28.314Z,144.00
2018-11-04T08:35:28.266Z,145.80
2018-11-04T08:36:28.229Z,139.00
2018-11-04T08:37:28.206Z,142.40
2018-11-04T08:38:28.160Z,155.30
2018-11-04T08:39:28.114Z,134.40
2018-11-04T08:40:28.257Z,143.80
2018-11-04T08:41:28.040Z,156.90
2018-11-04T08:42:28.015Z,138.60
2018-11-04T08:43:27.964Z,136.90
2018-11-04T08:44:27.925Z,134.40
2018-11-04T08:45:27.889Z,147.10
2018-11-04T08:46:27.852Z,131.50
2018-11-04T08:47:27.825Z,141.10
2018-11-04T08:48:27.776Z,131.00
2018-11-04T08:49:27.736Z,134.10
2018-11-04T08:50:27.698Z,135.60
2018-11-04T08:51:27.660Z,118.50
2018-11-04T08:52:27.659Z,114.40
2018-11-04T08:53:27.587Z,113.00
2018-11-04T08:54:27.546Z,123.30
2018-11-04T08:55:27.508Z,114.10
2018-11-04T08:56:27.470Z,115.80
2018-11-04T08:57:27.453Z,113.30
2018-11-04T08:58:27.397Z,136.90
2018-11-04T08:59:27.358Z,133.40
2018-11-04T09:00:27.323Z,113.50
2018-11-04T09:01:27.283Z,117.20
2018-11-04T09:02:27.249Z,123.40
2018-11-04T09:03:27.217Z,117.10
2018-11-04T09:04:27.175Z,106.10
2018-11-04T09:05:27.134Z,113.20
2018-11-04T09:06:27.137Z,105.10
2018-11-04T09:07:27.063Z,105.20
2018-11-04T09:08:27.027Z,115.60
2018-11-04T09:09:26.981Z,117.40
2018-11-04T09:10:26.945Z,99.80
2018-11-04T09:11:26.909Z,103.90
2018-11-04T09:12:26.871Z,95.10
2018-11-04T09:13:26.842Z,112.60
2018-11-04T09:14:26.909Z,106.80
2018-11-04T09:15:26.757Z,100.60
2018-11-04T09:16:26.721Z,94.40
2018-11-04T09:17:26.685Z,98.70
2018-11-04T09:18:26.666Z,99.20
2018-11-04T09:19:26.608Z,102.70
2018-11-04T09:20:26.575Z,94.10
2018-11-04T09:21:26.538Z,96.80
2018-11-04T09:22:26.527Z,92.70
2018-11-04T09:23:26.475Z,105.80
2018-11-04T09:24:26.433Z,101.80
2018-11-04T09:25:26.387Z,111.90
2018-11-04T09:26:26.360Z,98.20
2018-11-04T09:27:26.315Z,97.00
2018-11-04T09:28:26.277Z,98.00
2018-11-04T09:29:26.249Z,98.40
2018-11-04T09:30:26.203Z,94.50
2018-11-04T09:31:26.169Z,92.60
2018-11-04T09:32:26.129Z,92.10
2018-11-04T09:33:26.099Z,92.40
2018-11-04T09:34:26.063Z,92.80
2018-11-04T09:35:26.217Z,95.00
2018-11-04T09:36:25.995Z,95.20
2018-11-04T09:37:25.945Z,91.30
2018-11-04T09:38:25.913Z,92.10
2018-11-04T09:39:25.879Z,85.70
2018-11-04T09:40:25.836Z,95.70
2018-11-04T09:41:25.797Z,95.70
2018-11-04T09:42:25.762Z,99.90
2018-11-04T09:43:25.726Z,92.80
2018-11-04T09:44:25.726Z,90.80
2018-11-04T09:45:25.652Z,93.50
2018-11-04T09:46:25.623Z,89.70
2018-11-04T09:47:25.579Z,83.00
2018-11-04T09:48:25.540Z,89.00
2018-11-04T09:49:25.508Z,95.30
2018-11-04T09:50:25.482Z,90.80
2018-11-04T09:51:25.446Z,89.10
2018-11-04T09:52:25.407Z,90.60
2018-11-04T09:53:25.363Z,84.80
2018-11-04T09:54:25.326Z,87.30
2018-11-04T09:55:25.298Z,87.40
2018-11-04T09:56:25.305Z,94.10
2018-11-04T09:57:25.217Z,88.90
2018-11-04T09:58:25.182Z,99.10
2018-11-04T09:59:25.153Z,89.30
2018-11-04T10:00:25.113Z,93.50
2018-11-04T10:01:25.071Z,94.20
2018-11-04T10:02:25.036Z,85.80
2018-11-04T10:03:25.004Z,94.70
2018-11-04T10:04:24.967Z,100.90
2018-11-04T10:05:24.935Z,93.50
2018-11-04T10:06:24.890Z,93.80
2018-11-04T10:07:24.853Z,89.10
2018-11-04T10:08:24.818Z,87.60
2018-11-04T10:09:24.783Z,86.70
2018-11-04T10:10:24.760Z,84.70
2018-11-04T10:11:24.713Z,89.80
2018-11-04T10:12:24.675Z,84.40
2018-11-04T10:13:24.731Z,86.90
2018-11-04T10:14:24.602Z,77.20
2018-11-04T10:15:24.585Z,89.30
2018-11-04T10:16:24.597Z,83.40
2018-11-04T10:17:24.494Z,84.40
2018-11-04T10:18:24.460Z,81.60
2018-11-04T10:19:24.640Z,80.20
2018-11-04T10:20:24.933Z,82.80
2018-11-04T10:21:24.368Z,88.30
2018-11-04T10:22:24.321Z,90.80
2018-11-04T10:23:24.279Z,83.70
2018-11-04T10:24:24.245Z,90.40
2018-11-04T10:25:24.213Z,91.20
2018-11-04T10:26:24.184Z,93.80
2018-11-04T10:27:24.137Z,84.70
2018-11-04T10:28:24.106Z,80.50
2018-11-04T10:29:24.067Z,85.20
2018-11-04T10:30:24.108Z,76.90
2018-11-04T10:31:24.005Z,82.80
2018-11-04T10:32:23.960Z,75.80
2018-11-04T10:33:23.927Z,78.80
2018-11-04T10:34:23.891Z,76.40
2018-11-04T10:35:23.853Z,81.50
2018-11-04T10:36:23.900Z,73.70
2018-11-04T10:37:23.881Z,73.10
2018-11-04T10:38:23.748Z,71.00
2018-11-04T10:39:23.711Z,76.00
2018-11-04T10:40:23.678Z,77.20
2018-11-04T10:41:23.643Z,84.20
2018-11-04T10:42:23.699Z,73.40
2018-11-04T10:43:23.574Z,72.50
2018-11-04T10:44:23.536Z,72.00
2018-11-04T10:45:23.504Z,70.70
2018-11-04T10:46:23.467Z,81.60
2018-11-04T10:47:23.439Z,74.30
2018-11-04T10:48:23.396Z,80.90
2018-11-04T10:49:23.399Z,76.60
2018-11-04T10:50:23.329Z,69.40
2018-11-04T10:51:23.290Z,71.40
2018-11-04T10:52:23.264Z,81.70
2018-11-04T10:53:23.368Z,81.50
2018-11-04T10:54:23.187Z,76.60
2018-11-04T10:55:23.152Z,76.30
2018-11-04T10:56:23.120Z,86.70
2018-11-04T10:57:23.091Z,87.40
2018-11-04T10:58:23.052Z,82.60
2018-11-04T10:59:23.011Z,74.70
2018-11-04T11:00:22.977Z,68.90
2018-11-04T11:01:22.940Z,75.20
2018-11-04T11:02:22.918Z,77.90
2018-11-04T11:03:22.869Z,73.90
2018-11-04T11:04:22.838Z,71.70
2018-11-04T11:05:22.810Z,68.30
2018-11-04T11:06:22.772Z,75.50
2018-11-04T11:07:22.750Z,73.90
2018-11-04T11:08:22.702Z,69.50
2018-11-04T11:09:22.664Z,74.50
2018-11-04T11:10:22.628Z,77.60
2018-11-04T11:11:22.592Z,75.50
2018-11-04T11:12:22.558Z,75.00
2018-11-04T11:13:22.531Z,75.50
2018-11-04T11:14:22.490Z,78.00
2018-11-04T11:15:22.453Z,80.70
2018-11-04T11:16:22.417Z,77.70
2018-11-04T11:17:22.386Z,78.20
2018-11-04T11:18:22.358Z,79.50
2018-11-04T11:19:22.320Z,81.80
2018-11-04T11:20:22.281Z,82.90
2018-11-04T11:21:22.244Z,79.20
2018-11-04T11:22:22.246Z,84.40
2018-11-04T11:23:22.187Z,78.10
2018-11-04T11:24:22.145Z,76.50
2018-11-04T11:25:22.109Z,81.30
2018-11-04T11:26:22.072Z,77.10
2018-11-04T11:27:22.041Z,80.40
2018-11-04T11:28:22.013Z,78.70
2018-11-04T11:29:21.999Z,81.80
2018-11-04T11:30:21.937Z,78.20
2018-11-04T11:31:21.896Z,72.90
2018-11-04T11:32:21.866Z,75.70
2018-11-04T11:33:21.850Z,73.70
2018-11-04T11:34:21.794Z,80.00
2018-11-04T11:35:21.763Z,76.70
2018-11-04T11:36:21.725Z,79.20
2018-11-04T11:37:21.695Z,76.50
2018-11-04T11:38:21.668Z,73.90
2018-11-04T11:39:21.621Z,79.70
2018-11-04T11:40:21.589Z,82.20
2018-11-04T11:41:21.562Z,76.60
2018-11-04T11:42:21.521Z,81.20
2018-11-04T11:43:21.495Z,85.20
2018-11-04T11:44:21.449Z,83.70
2018-11-04T11:45:21.417Z,75.40
2018-11-04T11:46:21.382Z,78.40
2018-11-04T11:47:21.348Z,80.80
2018-11-04T11:48:21.325Z,80.80
2018-11-04T11:49:21.277Z,76.90
2018-11-04T11:50:21.243Z,85.50
2018-11-04T11:51:21.209Z,81.80
2018-11-04T11:52:21.233Z,77.70
2018-11-04T11:53:21.176Z,74.60
2018-11-04T11:54:21.111Z,81.90
2018-11-04T11:55:21.072Z,80.10
2018-11-04T11:56:21.038Z,72.80
2018-11-04T11:57:21.003Z,78.10
2018-11-04T11:58:20.969Z,85.10
2018-11-04T11:59:20.992Z,85.20
2018-11-04T12:00:20.901Z,75.70
2018-11-04T12:01:20.866Z,81.30
2018-11-04T12:02:20.995Z,77.50
2018-11-04T12:03:20.797Z,76.90
2018-11-04T12:04:20.764Z,79.30
2018-11-04T12:05:20.752Z,79.10
2018-11-04T12:06:20.698Z,75.50
2018-11-04T12:07:20.671Z,79.20
2018-11-04T12:08:20.633Z,85.20
2018-11-04T12:09:20.591Z,75.20
2018-11-04T12:10:20.560Z,74.30
2018-11-04T12:11:20.524Z,76.50
2018-11-04T12:12:20.514Z,74.10
2018-11-04T12:13:20.464Z,82.40
2018-11-04T12:14:20.443Z,81.10
2018-11-04T12:15:20.398Z,82.30
2018-11-04T12:16:20.356Z,89.30
2018-11-04T12:17:20.338Z,79.60
2018-11-04T12:18:20.285Z,80.10
2018-11-04T12:19:20.251Z,80.50
2018-11-04T12:20:20.218Z,81.50
2018-11-04T12:21:20.184Z,83.10
2018-11-04T12:22:20.150Z,77.40
2018-11-04T12:23:20.125Z,86.20
2018-11-04T12:24:20.083Z,76.60
2018-11-04T12:25:20.047Z,75.80
2018-11-04T12:26:20.018Z,78.00
2018-11-04T12:27:19.978Z,80.70
2018-11-04T12:28:19.954Z,83.70
2018-11-04T12:29:19.909Z,84.30
2018-11-04T12:30:19.877Z,72.60
2018-11-04T12:31:19.843Z,79.50
2018-11-04T12:32:19.806Z,76.00
2018-11-04T12:33:19.785Z,76.30
2018-11-04T12:34:19.742Z,77.70